Florenville, Belgium
Current Conditions -  °F | °C
As of 5:50 PM on Thursday 27 Nov 2014 (Local Time) from ELLX Reporting Station
Broken Clouds Broken Clouds  
Wind Chill: 39°   Ceiling: 500
Heat Index: 43°   Visibility: 3mi
Dew Point: 43°   Wind: 6mph
Humidity: 100%   Direction: 110°ESE
Pressure: 29.71"   Gusts: NA
Location:  49.7°N, 5.31°E
Report Text: ELLX 271650Z 11005KT 080V150 5000 BKN005 06/06 Q1006 NOSIG
Loading
Personal Weather Stations






























Interactive Weather Map New forecast layout! Learn more

10-Day Weather Forecast

Advertisements
Track Severe Weather on mobile